Time;durP1;ratioP1;P1;durP2;ratioP2;P2;SDS_P1;SDS_P2;PMS_P1;PMS_P2;Temp;Humidity;BMP_temperature;BMP_pressure;BME280_temperature;BME280_humidity;BME280_pressure;Samples;Min_cycle;Max_cycle;Signal;HPM_P1;HPM_P2
2022/12/22 03:25:51;;;;;;;2.25;1.00;;;;;;;;;;5021591;28;20037;-84
2022/12/22 03:28:17;;;;;;;2.38;0.93;;;;;;;;;;5021807;28;20014;-84
2022/12/22 03:30:43;;;;;;;2.45;1.40;;;;;;;;;;5005297;28;20069;-82
2022/12/22 03:33:09;;;;;;;1.25;1.00;;;;;;;;;;5025434;28;20026;-79
2022/12/22 03:35:35;;;;;;;1.70;1.40;;;;;;;;;;5035956;28;20029;-80
2022/12/22 03:38:02;;;;;;;1.60;1.00;;;;;;;;;;5017307;28;20042;-82
2022/12/22 03:40:31;;;;;;;2.05;1.20;;;;;;;;;;5031911;28;20037;-84
2022/12/22 03:48:26;;;;;;;1.15;0.90;;;;;;;;;;5025733;28;20060;-82
2022/12/22 03:50:52;;;;;;;1.75;0.80;;;;;;;;;;5022494;28;20092;-83
2022/12/22 03:53:18;;;;;;;1.00;0.80;;;;;;;;;;5020110;28;20463;-82
2022/12/22 03:55:45;;;;;;;0.98;0.65;;;;;;;;;;5021159;28;20112;-85
2022/12/22 03:58:11;;;;;;;1.27;0.80;;;;;;;;;;5010434;28;20089;-81
2022/12/22 04:00:37;;;;;;;1.25;0.98;;;;;;;;;;5020613;28;20010;-79
2022/12/22 04:03:04;;;;;;;1.58;0.85;;;;;;;;;;5015589;28;20120;-84
2022/12/22 04:05:30;;;;;;;1.15;0.65;;;;;;;;;;4991425;28;20033;-84
2022/12/22 04:07:56;;;;;;;0.75;0.75;;;;;;;;;;5030767;28;20034;-83
2022/12/22 04:13:09;;;;;;;2.72;1.15;;;;;;;;;;5036329;28;20119;-81
2022/12/22 04:15:41;;;;;;;0.82;0.70;;;;;;;;;;5016726;28;20054;-85
2022/12/22 04:18:07;;;;;;;1.10;1.00;;;;;;;;;;5008345;28;20469;-85
2022/12/22 04:20:34;;;;;;;1.13;1.02;;;;;;;;;;5027707;28;20040;-83
2022/12/22 04:23:00;;;;;;;1.33;0.80;;;;;;;;;;5014501;28;20018;-81
2022/12/22 04:25:27;;;;;;;0.70;0.70;;;;;;;;;;5036658;28;20037;-83
2022/12/22 04:27:53;;;;;;;1.35;0.88;;;;;;;;;;5035907;28;20068;-83
2022/12/22 04:30:19;;;;;;;1.05;0.77;;;;;;;;;;5032594;28;20026;-85
2022/12/22 04:32:45;;;;;;;1.40;0.70;;;;;;;;;;5022061;28;20018;-84
2022/12/22 04:35:11;;;;;;;1.10;1.00;;;;;;;;;;5020819;28;20045;-85
2022/12/22 04:37:37;;;;;;;1.92;0.88;;;;;;;;;;5020764;28;20149;-81
2022/12/22 04:40:04;;;;;;;1.42;0.80;;;;;;;;;;5020495;28;20029;-84
2022/12/22 04:42:30;;;;;;;1.00;0.90;;;;;;;;;;5004028;28;20033;-85
2022/12/22 04:44:56;;;;;;;1.02;0.68;;;;;;;;;;5004971;28;20037;-85
2022/12/22 04:47:22;;;;;;;0.75;0.63;;;;;;;;;;5004546;28;20088;-85
2022/12/22 04:49:48;;;;;;;0.93;0.73;;;;;;;;;;5022066;28;20022;-85
2022/12/22 04:52:14;;;;;;;0.60;0.60;;;;;;;;;;5004238;28;20037;-86
2022/12/22 04:54:40;;;;;;;0.57;0.50;;;;;;;;;;5022815;28;20033;-85
2022/12/22 04:57:06;;;;;;;1.08;0.63;;;;;;;;;;5026243;28;20056;-85
2022/12/22 04:59:32;;;;;;;2.03;0.80;;;;;;;;;;5023035;28;20384;-86
2022/12/22 05:01:58;;;;;;;0.80;0.73;;;;;;;;;;5003565;28;20045;-84
2022/12/22 05:04:24;;;;;;;1.23;0.68;;;;;;;;;;5024364;28;20129;-84
2022/12/22 05:06:50;;;;;;;0.68;0.68;;;;;;;;;;5029590;28;20038;-84
2022/12/22 05:09:16;;;;;;;0.68;0.57;;;;;;;;;;5031529;28;20017;-81
2022/12/22 05:11:42;;;;;;;0.85;0.75;;;;;;;;;;5018740;28;20058;-80
2022/12/22 05:14:08;;;;;;;1.63;0.95;;;;;;;;;;5021791;28;20041;-85
2022/12/22 05:16:34;;;;;;;1.45;0.60;;;;;;;;;;5002161;28;20053;-84
2022/12/22 05:19:01;;;;;;;1.20;0.95;;;;;;;;;;5002530;28;20033;-84
2022/12/22 05:21:27;;;;;;;1.13;0.60;;;;;;;;;;5022162;28;20041;-80
2022/12/22 05:23:53;;;;;;;0.85;0.70;;;;;;;;;;5023029;28;20061;-83
2022/12/22 05:26:19;;;;;;;0.82;0.68;;;;;;;;;;5010481;28;20030;-83
2022/12/22 05:28:46;;;;;;;0.57;0.50;;;;;;;;;;5031274;28;20418;-83
2022/12/22 05:31:17;;;;;;;3.03;0.60;;;;;;;;;;5024304;28;20033;-85
2022/12/22 05:33:43;;;;;;;0.80;0.70;;;;;;;;;;5005043;28;20311;-82
2022/12/22 05:36:09;;;;;;;0.65;0.60;;;;;;;;;;5020530;28;20030;-83
2022/12/22 05:38:35;;;;;;;2.35;0.90;;;;;;;;;;5002232;28;20037;-83
2022/12/22 05:41:01;;;;;;;0.95;0.88;;;;;;;;;;5000822;28;20485;-84
2022/12/22 05:43:27;;;;;;;0.70;0.70;;;;;;;;;;5020488;28;20034;-83
2022/12/22 05:45:53;;;;;;;1.60;0.90;;;;;;;;;;5020876;28;20033;-85
2022/12/22 05:48:19;;;;;;;0.85;0.68;;;;;;;;;;5022197;28;20397;-83
2022/12/22 05:50:45;;;;;;;0.88;0.82;;;;;;;;;;5021159;28;20130;-84
2022/12/22 05:53:11;;;;;;;0.60;0.60;;;;;;;;;;5020531;28;20034;-85
2022/12/22 05:55:37;;;;;;;1.17;0.85;;;;;;;;;;5020445;28;20088;-83
2022/12/22 05:58:04;;;;;;;1.25;0.90;;;;;;;;;;5032430;28;20037;-83
2022/12/22 06:00:30;;;;;;;2.85;1.00;;;;;;;;;;5035933;28;20006;-82
2022/12/22 06:02:57;;;;;;;3.20;0.57;;;;;;;;;;5031463;28;20072;-83
2022/12/22 06:05:23;;;;;;;0.93;0.80;;;;;;;;;;5020223;28;20037;-82
2022/12/22 06:07:49;;;;;;;1.27;0.70;;;;;;;;;;5020013;28;20109;-79
2022/12/22 06:10:15;;;;;;;1.30;0.70;;;;;;;;;;5021572;28;20084;-83
2022/12/22 06:12:41;;;;;;;1.58;0.77;;;;;;;;;;5002874;28;20029;-84
2022/12/22 06:15:10;;;;;;;1.00;0.60;;;;;;;;;;5003494;28;20026;-84
2022/12/22 06:17:36;;;;;;;0.75;0.60;;;;;;;;;;5021138;28;20073;-85
2022/12/22 06:20:02;;;;;;;0.90;0.82;;;;;;;;;;5023099;28;20030;-84
2022/12/22 06:22:28;;;;;;;2.35;0.90;;;;;;;;;;5022723;28;20501;-84
2022/12/22 06:24:54;;;;;;;3.70;0.80;;;;;;;;;;5021397;28;20026;-84
2022/12/22 06:27:20;;;;;;;1.95;0.80;;;;;;;;;;5003548;28;20052;-82
2022/12/22 06:29:46;;;;;;;0.90;0.65;;;;;;;;;;5022722;28;20037;-85
2022/12/22 06:32:12;;;;;;;0.73;0.68;;;;;;;;;;5015120;28;20098;-83
2022/12/22 06:34:38;;;;;;;1.35;0.70;;;;;;;;;;5033048;28;20033;-81
2022/12/22 06:37:04;;;;;;;1.05;0.65;;;;;;;;;;5033741;28;20048;-82
2022/12/22 06:39:30;;;;;;;0.50;0.50;;;;;;;;;;5034957;28;20070;-81
2022/12/22 06:44:41;;;;;;;1.63;0.65;;;;;;;;;;5033654;28;20041;-81
2022/12/22 06:47:07;;;;;;;0.70;0.70;;;;;;;;;;5017385;28;20104;-81
2022/12/22 06:49:33;;;;;;;0.60;0.60;;;;;;;;;;5033975;28;20041;-82
2022/12/22 06:51:59;;;;;;;2.17;0.70;;;;;;;;;;5014639;28;20025;-83
2022/12/22 06:54:25;;;;;;;0.70;0.70;;;;;;;;;;5006549;28;20026;-86
2022/12/22 06:56:51;;;;;;;3.03;0.88;;;;;;;;;;5020727;28;20030;-82
2022/12/22 06:59:17;;;;;;;1.52;0.82;;;;;;;;;;5003521;28;20077;-84
2022/12/22 07:01:43;;;;;;;3.17;0.85;;;;;;;;;;5020115;28;20472;-84
2022/12/22 07:04:09;;;;;;;0.82;0.82;;;;;;;;;;5003374;28;20034;-85
2022/12/22 07:06:36;;;;;;;2.30;1.10;;;;;;;;;;5015962;28;20032;-81
2022/12/22 07:09:02;;;;;;;0.95;0.60;;;;;;;;;;5018436;28;20049;-81
2022/12/22 07:11:28;;;;;;;1.23;0.70;;;;;;;;;;5017925;28;20077;-81
2022/12/22 07:13:54;;;;;;;2.65;0.70;;;;;;;;;;5017793;28;20018;-81
2022/12/22 07:16:20;;;;;;;2.75;1.00;;;;;;;;;;5035635;28;20082;-80
2022/12/22 07:18:46;;;;;;;1.30;0.77;;;;;;;;;;5035386;28;20025;-79
2022/12/22 07:21:13;;;;;;;2.47;0.95;;;;;;;;;;5033533;28;20034;-83
2022/12/22 07:23:40;;;;;;;2.03;0.80;;;;;;;;;;5022830;28;20038;-83
2022/12/22 07:26:07;;;;;;;3.05;0.73;;;;;;;;;;5023558;28;20034;-85
2022/12/22 07:28:33;;;;;;;3.50;2.40;;;;;;;;;;5006391;28;20053;-84
2022/12/22 07:30:59;;;;;;;1.50;0.70;;;;;;;;;;5025260;28;20061;-86
2022/12/22 07:33:25;;;;;;;1.88;0.60;;;;;;;;;;5030406;28;20017;-82
2022/12/22 07:36:24;;;;;;;5.68;0.68;;;;;;;;;;5037676;28;20033;-83
2022/12/22 07:38:51;;;;;;;0.50;0.50;;;;;;;;;;4985117;28;20086;-81
2022/12/22 07:44:03;;;;;;;2.88;0.57;;;;;;;;;;5038488;28;20033;-83
2022/12/22 07:46:31;;;;;;;2.15;1.05;;;;;;;;;;5021195;28;20045;-79
2022/12/22 07:51:42;;;;;;;2.65;0.90;;;;;;;;;;5024990;28;20044;-83
2022/12/22 07:54:09;;;;;;;1.33;0.68;;;;;;;;;;5024189;28;20014;-85
2022/12/22 07:56:35;;;;;;;3.63;0.77;;;;;;;;;;5008665;28;20109;-83
2022/12/22 07:59:01;;;;;;;1.92;0.73;;;;;;;;;;5017399;28;20029;-81
2022/12/22 08:01:27;;;;;;;2.47;0.52;;;;;;;;;;5037195;28;20021;-81
2022/12/22 08:03:54;;;;;;;2.45;0.70;;;;;;;;;;5035450;28;20022;-81
2022/12/22 08:06:20;;;;;;;3.28;0.90;;;;;;;;;;5035376;28;20041;-83
2022/12/22 08:08:46;;;;;;;0.75;0.52;;;;;;;;;;5024057;28;20034;-85
2022/12/22 08:11:12;;;;;;;3.78;0.90;;;;;;;;;;5025194;28;20030;-84
2022/12/22 08:13:38;;;;;;;2.25;0.82;;;;;;;;;;5025145;28;20033;-84
2022/12/22 08:16:05;;;;;;;1.77;0.85;;;;;;;;;;5023942;28;20025;-86
2022/12/22 08:18:32;;;;;;;4.93;0.93;;;;;;;;;;5022710;28;20026;-83
2022/12/22 08:20:58;;;;;;;5.13;1.17;;;;;;;;;;5024144;28;20033;-84
2022/12/22 08:23:24;;;;;;;2.90;1.42;;;;;;;;;;5022820;28;20056;-83
2022/12/22 08:25:52;;;;;;;1.63;0.63;;;;;;;;;;5022981;28;20056;-83
2022/12/22 08:28:18;;;;;;;3.13;0.88;;;;;;;;;;5023820;28;20097;-84
2022/12/22 08:30:45;;;;;;;1.90;0.63;;;;;;;;;;5024157;28;20029;-81
2022/12/22 08:33:11;;;;;;;1.85;0.80;;;;;;;;;;5022518;28;20159;-84
2022/12/22 08:35:37;;;;;;;3.13;0.82;;;;;;;;;;5022439;28;20022;-85
2022/12/22 08:38:04;;;;;;;1.85;0.90;;;;;;;;;;5004477;28;20021;-84
2022/12/22 08:40:31;;;;;;;2.33;1.15;;;;;;;;;;5021361;28;20021;-82
2022/12/22 08:43:01;;;;;;;3.67;1.50;;;;;;;;;;5022410;28;20029;-85
2022/12/22 08:45:28;;;;;;;3.60;1.17;;;;;;;;;;5021713;28;20010;-86
2022/12/22 08:47:54;;;;;;;2.97;1.33;;;;;;;;;;5025207;28;20026;-83
2022/12/22 08:50:20;;;;;;;2.33;1.10;;;;;;;;;;5031740;28;20384;-85
2022/12/22 08:52:46;;;;;;;2.72;1.02;;;;;;;;;;5033777;28;20026;-84
2022/12/22 08:55:12;;;;;;;2.92;1.08;;;;;;;;;;5026144;28;20105;-85
2022/12/22 08:57:38;;;;;;;3.42;1.05;;;;;;;;;;5023612;28;20026;-83
2022/12/22 09:00:07;;;;;;;3.22;1.30;;;;;;;;;;5023449;28;20493;-85
2022/12/22 09:02:33;;;;;;;2.65;1.25;;;;;;;;;;5023459;28;20370;-84
2022/12/22 09:04:59;;;;;;;3.67;1.48;;;;;;;;;;5004905;28;20037;-83
2022/12/22 09:07:25;;;;;;;4.13;1.25;;;;;;;;;;5023671;28;20034;-85
2022/12/22 09:09:57;;;;;;;6.65;1.20;;;;;;;;;;5013660;28;20049;-82
2022/12/22 09:12:24;;;;;;;4.00;1.40;;;;;;;;;;5027815;28;20030;-85
2022/12/22 09:14:53;;;;;;;0.95;0.80;;;;;;;;;;5005256;28;20052;-84
2022/12/22 09:17:20;;;;;;;8.02;1.95;;;;;;;;;;5005336;28;20030;-85
2022/12/22 09:19:49;;;;;;;3.05;1.10;;;;;;;;;;5023088;28;20279;-85
2022/12/22 09:22:16;;;;;;;6.43;2.17;;;;;;;;;;5004754;28;20092;-82
2022/12/22 09:24:42;;;;;;;5.35;2.80;;;;;;;;;;5004210;28;20461;-85
2022/12/22 09:27:10;;;;;;;5.15;1.70;;;;;;;;;;5020441;28;20058;-81
2022/12/22 09:29:42;;;;;;;4.22;1.30;;;;;;;;;;5001805;28;20060;-84
2022/12/22 09:32:10;;;;;;;2.47;1.15;;;;;;;;;;4990159;28;20037;-83
2022/12/22 09:34:36;;;;;;;2.97;1.10;;;;;;;;;;5005816;28;20030;-83
2022/12/22 09:37:05;;;;;;;4.03;1.35;;;;;;;;;;4989324;28;20057;-85
2022/12/22 09:39:32;;;;;;;2.78;0.80;;;;;;;;;;5003450;28;20037;-84
2022/12/22 09:41:59;;;;;;;6.07;1.45;;;;;;;;;;5003698;28;20497;-81
2022/12/22 09:44:29;;;;;;;4.82;2.17;;;;;;;;;;5004667;28;20439;-85
2022/12/22 09:46:59;;;;;;;14.25;11.10;;;;;;;;;;5022012;28;20026;-83
2022/12/22 09:52:39;;;;;;;3.60;1.50;;;;;;;;;;5021982;28;20101;-81
2022/12/22 09:55:25;;;;;;;2.03;0.90;;;;;;;;;;5026872;28;20134;-83
2022/12/22 09:57:59;;;;;;;;;;;;;;;;;;5026356;28;20034;-84
2022/12/22 10:01:00;;;;;;;2.47;0.82;;;;;;;;;;5012506;28;19941;-82
2022/12/22 10:07:00;;;;;;;2.47;1.38;;;;;;;;;;5027638;28;20178;-86
2022/12/22 10:10:07;;;;;;;4.47;1.40;;;;;;;;;;5016903;28;20113;-81
2022/12/22 10:12:36;;;;;;;6.50;1.30;;;;;;;;;;5034017;28;20048;-82
2022/12/22 10:15:05;;;;;;;1.63;0.93;;;;;;;;;;5015615;28;20014;-85
2022/12/22 10:17:37;;;;;;;2.60;1.00;;;;;;;;;;5007268;28;20025;-86
2022/12/22 10:20:25;;;;;;;4.20;1.10;;;;;;;;;;5023387;28;20041;-85
2022/12/22 10:22:57;;;;;;;3.63;1.05;;;;;;;;;;5032234;28;20021;-80
2022/12/22 10:25:37;;;;;;;2.95;1.00;;;;;;;;;;5035807;28;20125;-81
2022/12/22 10:28:25;;;;;;;4.25;0.80;;;;;;;;;;5034294;28;20102;-82
2022/12/22 10:31:08;;;;;;;2.83;1.10;;;;;;;;;;5013602;28;20026;-83
2022/12/22 10:33:38;;;;;;;2.80;0.80;;;;;;;;;;5004648;28;20111;-83
2022/12/22 10:36:05;;;;;;;4.38;0.70;;;;;;;;;;5009102;28;20042;-85
2022/12/22 10:38:39;;;;;;;1.55;0.90;;;;;;;;;;5023602;28;20028;-83
2022/12/22 10:41:14;;;;;;;1.85;0.85;;;;;;;;;;5024255;28;20030;-83
2022/12/22 10:44:00;;;;;;;2.40;0.90;;;;;;;;;;5005389;28;20022;-81
2022/12/22 10:46:32;;;;;;;4.13;1.08;;;;;;;;;;5006231;28;20094;-81
2022/12/22 10:49:25;;;;;;;5.07;1.50;;;;;;;;;;5012685;28;20074;-79
2022/12/22 10:52:11;;;;;;;10.15;1.70;;;;;;;;;;5012355;28;20049;-84
2022/12/22 10:54:41;;;;;;;2.47;1.20;;;;;;;;;;5004322;28;20460;-83
2022/12/22 10:57:13;;;;;;;5.43;1.33;;;;;;;;;;5005628;28;20125;-85
2022/12/22 10:59:39;;;;;;;;;;;;;;;;;;5029214;28;20022;-82
2022/12/22 11:02:21;;;;;;;2.45;1.30;;;;;;;;;;5033600;28;19949;-81
2022/12/22 11:04:48;;;;;;;2.97;1.23;;;;;;;;;;5037723;28;20041;-83
2022/12/22 11:07:14;;;;;;;3.78;1.45;;;;;;;;;;5020788;28;20256;-81
2022/12/22 11:09:40;;;;;;;4.55;1.00;;;;;;;;;;5020517;28;20022;-81
2022/12/22 11:12:25;;;;;;;4.80;1.80;;;;;;;;;;5037560;28;20064;-82
2022/12/22 11:15:10;;;;;;;4.03;1.58;;;;;;;;;;5037369;28;20036;-81
2022/12/22 11:17:50;;;;;;;4.13;1.42;;;;;;;;;;5037774;28;20032;-83
2022/12/22 11:20:16;;;;;;;7.75;1.27;;;;;;;;;;5035374;28;20010;-81
2022/12/22 11:22:48;;;;;;;6.53;1.50;;;;;;;;;;5028646;28;20026;-83
2022/12/22 11:25:33;;;;;;;6.22;1.00;;;;;;;;;;5009175;28;20037;-83
2022/12/22 11:28:14;;;;;;;5.68;1.25;;;;;;;;;;5009240;28;20125;-82
2022/12/22 11:30:40;;;;;;;6.13;1.23;;;;;;;;;;5029873;28;20034;-82
2022/12/22 11:33:14;;;;;;;7.47;1.23;;;;;;;;;;5011638;28;20025;-82
2022/12/22 11:35:59;;;;;;;5.18;1.40;;;;;;;;;;5029235;28;20012;-81
2022/12/22 11:38:44;;;;;;;8.75;1.60;;;;;;;;;;5013103;28;20041;-83
2022/12/22 11:41:21;;;;;;;7.32;1.25;;;;;;;;;;5029807;28;20089;-83
2022/12/22 11:43:53;;;;;;;4.07;1.13;;;;;;;;;;5029394;28;20618;-83
2022/12/22 11:46:19;;;;;;;3.58;1.52;;;;;;;;;;5030339;28;20037;-85
2022/12/22 11:49:02;;;;;;;5.20;1.73;;;;;;;;;;5031168;28;20026;-82
2022/12/22 11:51:46;;;;;;;5.15;1.58;;;;;;;;;;5030295;28;20030;-83
2022/12/22 11:54:15;;;;;;;4.38;1.40;;;;;;;;;;5033026;28;20037;-83
2022/12/22 11:56:46;;;;;;;9.02;1.58;;;;;;;;;;5020177;28;20045;-83
2022/12/22 11:59:31;;;;;;;4.15;1.52;;;;;;;;;;5031159;28;20026;-84
2022/12/22 12:02:15;;;;;;;2.95;1.27;;;;;;;;;;5034752;28;20022;-84
2022/12/22 12:04:54;;;;;;;4.90;1.63;;;;;;;;;;5032100;28;20080;-83
2022/12/22 12:07:34;;;;;;;6.10;1.33;;;;;;;;;;5029289;28;20140;-83
2022/12/22 12:10:00;;;;;;;6.32;1.48;;;;;;;;;;5013443;28;20034;-83
2022/12/22 12:12:29;;;;;;;6.35;1.50;;;;;;;;;;5036067;28;20032;-83
2022/12/22 12:15:01;;;;;;;5.30;1.35;;;;;;;;;;5028721;28;20025;-83
2022/12/22 12:17:43;;;;;;;9.93;1.30;;;;;;;;;;5028330;28;20037;-85
2022/12/22 12:20:24;;;;;;;4.68;1.58;;;;;;;;;;5028924;28;20105;-83
2022/12/22 12:22:55;;;;;;;6.28;1.58;;;;;;;;;;5028448;28;20030;-83
2022/12/22 12:25:28;;;;;;;4.15;1.77;;;;;;;;;;5028463;28;20445;-84
2022/12/22 12:27:53;;;;;;;;;;;;;;;;;;5011691;28;20049;-83
2022/12/22 12:30:21;;;;;;;8.27;1.95;;;;;;;;;;5010360;28;19951;-85
2022/12/22 12:32:56;;;;;;;5.72;1.88;;;;;;;;;;5028384;28;20073;-82
2022/12/22 12:35:40;;;;;;;7.90;1.85;;;;;;;;;;5029181;28;20024;-83
2022/12/22 12:38:19;;;;;;;10.07;1.45;;;;;;;;;;5029241;28;20033;-84
2022/12/22 12:40:52;;;;;;;7.97;1.40;;;;;;;;;;5027256;28;20022;-82
2022/12/22 12:43:18;;;;;;;6.20;1.30;;;;;;;;;;5012386;28;20037;-82
2022/12/22 12:45:46;;;;;;;6.43;1.40;;;;;;;;;;5011731;28;20025;-84
2022/12/22 12:48:24;;;;;;;4.55;1.40;;;;;;;;;;5016560;28;20014;-84
2022/12/22 12:50:51;;;;;;;10.57;2.30;;;;;;;;;;5037734;28;20029;-85
2022/12/22 12:53:17;;;;;;;4.72;1.25;;;;;;;;;;5020193;28;20100;-84
2022/12/22 12:55:52;;;;;;;10.02;1.92;;;;;;;;;;5037044;28;20010;-85
2022/12/22 12:58:37;;;;;;;6.55;1.63;;;;;;;;;;5020180;28;20044;-84
2022/12/22 13:01:18;;;;;;;5.82;2.03;;;;;;;;;;5037216;28;20041;-84
2022/12/22 13:03:45;;;;;;;4.22;1.48;;;;;;;;;;5033411;28;20034;-83
2022/12/22 13:06:31;;;;;;;5.25;1.25;;;;;;;;;;5011318;28;20036;-83
2022/12/22 13:09:00;;;;;;;6.63;1.83;;;;;;;;;;5010196;28;20049;-83
2022/12/22 13:11:30;;;;;;;3.75;1.40;;;;;;;;;;5027355;28;20026;-83
2022/12/22 13:13:56;;;;;;;5.72;1.77;;;;;;;;;;5026123;28;20018;-83
2022/12/22 13:16:24;;;;;;;6.00;1.80;;;;;;;;;;5026956;28;20022;-82
2022/12/22 13:18:50;;;;;;;6.78;1.90;;;;;;;;;;5008708;28;20026;-83
2022/12/22 13:21:16;;;;;;;8.60;2.28;;;;;;;;;;5027311;28;20021;-82
2022/12/22 13:23:42;;;;;;;7.43;1.73;;;;;;;;;;5026114;28;20097;-84
2022/12/22 13:26:18;;;;;;;7.20;1.85;;;;;;;;;;5024904;28;20025;-83
2022/12/22 13:28:47;;;;;;;7.47;1.95;;;;;;;;;;5027353;28;20030;-83
2022/12/22 13:31:18;;;;;;;6.95;1.40;;;;;;;;;;5026159;28;20072;-83
2022/12/22 13:33:44;;;;;;;7.28;1.73;;;;;;;;;;5009653;28;20030;-83
2022/12/22 13:36:19;;;;;;;6.22;1.65;;;;;;;;;;5029049;28;20046;-81
2022/12/22 13:38:45;;;;;;;8.23;2.03;;;;;;;;;;5016540;28;20030;-83
2022/12/22 13:41:16;;;;;;;6.03;1.70;;;;;;;;;;5011694;28;20057;-82
2022/12/22 13:43:44;;;;;;;4.35;1.50;;;;;;;;;;5027403;28;20038;-83
2022/12/22 13:46:10;;;;;;;4.82;1.33;;;;;;;;;;5027051;28;20084;-82
2022/12/22 13:48:41;;;;;;;5.30;1.55;;;;;;;;;;5026585;28;20030;-82
2022/12/22 13:51:09;;;;;;;6.88;1.40;;;;;;;;;;5007684;28;20058;-84
2022/12/22 13:53:39;;;;;;;9.50;1.85;;;;;;;;;;5022257;28;20061;-84
2022/12/22 13:56:13;;;;;;;6.18;1.67;;;;;;;;;;5026043;28;20022;-83
2022/12/22 13:58:43;;;;;;;7.53;2.00;;;;;;;;;;5026705;28;20053;-81
2022/12/22 14:01:10;;;;;;;6.70;1.98;;;;;;;;;;5034563;28;20025;-84
2022/12/22 14:03:37;;;;;;;7.47;1.48;;;;;;;;;;5033222;28;20102;-81
2022/12/22 14:06:17;;;;;;;11.57;2.25;;;;;;;;;;5026038;28;20026;-81
2022/12/22 14:08:43;;;;;;;5.95;1.50;;;;;;;;;;5032997;28;20461;-84
2022/12/22 14:11:09;;;;;;;7.30;1.58;;;;;;;;;;5032560;28;20038;-84
2022/12/22 14:13:38;;;;;;;8.52;1.60;;;;;;;;;;5014689;28;20041;-83
2022/12/22 14:16:04;;;;;;;10.75;1.90;;;;;;;;;;5028807;28;20042;-82
2022/12/22 14:18:32;;;;;;;7.43;2.30;;;;;;;;;;5010532;28;20056;-83
2022/12/22 14:20:59;;;;;;;9.10;2.55;;;;;;;;;;5009800;28;20022;-84
2022/12/22 14:23:27;;;;;;;6.20;2.00;;;;;;;;;;5026936;28;20029;-84
2022/12/22 14:25:54;;;;;;;6.22;1.90;;;;;;;;;;5024193;28;20026;-84
2022/12/22 14:28:48;;;;;;;7.40;1.90;;;;;;;;;;5024705;28;20026;-85
2022/12/22 14:31:15;;;;;;;10.23;2.05;;;;;;;;;;5023496;28;20045;-86
2022/12/22 14:33:50;;;;;;;9.65;2.40;;;;;;;;;;5007034;28;20018;-85
2022/12/22 14:36:22;;;;;;;6.47;2.20;;;;;;;;;;5006906;28;20033;-85
2022/12/22 14:38:50;;;;;;;8.98;1.98;;;;;;;;;;5010060;28;20017;-87
2022/12/22 14:41:42;;;;;;;8.90;2.13;;;;;;;;;;5029802;28;20192;-85
2022/12/22 14:44:13;;;;;;;13.60;2.28;;;;;;;;;;5011527;28;20018;-86
2022/12/22 14:46:40;;;;;;;15.65;2.38;;;;;;;;;;5012252;28;20038;-85
2022/12/22 14:49:11;;;;;;;9.18;2.22;;;;;;;;;;5011525;28;20064;-86
2022/12/22 14:51:37;;;;;;;8.82;1.95;;;;;;;;;;5028192;28;20026;-84
2022/12/22 14:54:04;;;;;;;8.20;3.20;;;;;;;;;;5029184;28;20018;-84
2022/12/22 14:56:30;;;;;;;11.23;2.47;;;;;;;;;;5029119;28;20026;-85
2022/12/22 14:59:11;;;;;;;10.68;2.78;;;;;;;;;;5014515;28;20120;-85
2022/12/22 15:01:37;;;;;;;7.45;1.85;;;;;;;;;;5024207;28;20037;-85
2022/12/22 15:04:03;;;;;;;10.40;2.30;;;;;;;;;;5010380;28;20033;-84
2022/12/22 15:06:30;;;;;;;7.63;2.00;;;;;;;;;;5010992;28;20129;-86
2022/12/22 15:09:07;;;;;;;13.90;2.58;;;;;;;;;;5010402;28;20119;-85
2022/12/22 15:11:35;;;;;;;12.57;2.38;;;;;;;;;;5032142;28;20022;-86
2022/12/22 15:14:01;;;;;;;11.52;2.55;;;;;;;;;;5014779;28;20030;-86
2022/12/22 15:16:31;;;;;;;10.23;2.13;;;;;;;;;;5011719;28;20036;-86
2022/12/22 15:18:57;;;;;;;12.60;2.80;;;;;;;;;;5030962;28;20060;-85
2022/12/22 15:21:23;;;;;;;10.98;2.90;;;;;;;;;;5028217;28;20034;-85
2022/12/22 15:23:49;;;;;;;8.15;2.50;;;;;;;;;;5011541;28;20034;-85
2022/12/22 15:26:15;;;;;;;9.27;1.90;;;;;;;;;;5028869;28;20057;-85
2022/12/22 15:28:41;;;;;;;12.60;2.53;;;;;;;;;;5031387;28;20018;-84
2022/12/22 15:31:13;;;;;;;10.00;2.08;;;;;;;;;;5038033;28;20025;-86
2022/12/22 15:33:39;;;;;;;8.98;2.47;;;;;;;;;;5038279;28;20077;-85
2022/12/22 15:36:06;;;;;;;8.25;2.17;;;;;;;;;;5038428;28;20102;-84
2022/12/22 15:38:32;;;;;;;15.35;2.55;;;;;;;;;;5038708;28;20033;-86
2022/12/22 15:40:58;;;;;;;10.32;2.55;;;;;;;;;;5022077;28;20050;-86
2022/12/22 15:43:24;;;;;;;9.00;2.67;;;;;;;;;;5021247;28;20018;-86
2022/12/22 15:45:50;;;;;;;9.63;2.75;;;;;;;;;;5038770;28;20018;-86
2022/12/22 15:48:28;;;;;;;8.63;2.50;;;;;;;;;;5019874;28;20013;-86
2022/12/22 15:50:54;;;;;;;8.88;2.20;;;;;;;;;;5017799;28;20048;-86
2022/12/22 15:53:21;;;;;;;7.20;2.70;;;;;;;;;;5012859;28;20045;-87
2022/12/22 15:55:50;;;;;;;8.35;2.55;;;;;;;;;;5032540;28;20026;-86
2022/12/22 15:58:17;;;;;;;10.95;2.08;;;;;;;;;;5018762;28;20064;-87
2022/12/22 16:00:43;;;;;;;8.15;2.30;;;;;;;;;;5039350;28;20018;-87
2022/12/22 16:03:10;;;;;;;8.68;2.08;;;;;;;;;;5036030;28;20078;-85
2022/12/22 16:05:37;;;;;;;9.63;2.22;;;;;;;;;;5038995;28;20069;-85
2022/12/22 16:08:03;;;;;;;7.90;1.83;;;;;;;;;;5038358;28;20037;-85
2022/12/22 16:10:31;;;;;;;8.02;1.80;;;;;;;;;;5020466;28;20046;-84
2022/12/22 16:12:59;;;;;;;11.10;3.08;;;;;;;;;;5009850;28;20022;-86
2022/12/22 16:15:30;;;;;;;6.60;2.20;;;;;;;;;;5029101;28;20026;-86
2022/12/22 16:17:56;;;;;;;5.45;1.88;;;;;;;;;;5018208;28;20018;-85
2022/12/22 16:20:23;;;;;;;8.55;2.17;;;;;;;;;;5020177;28;20026;-86
2022/12/22 16:22:50;;;;;;;4.88;1.88;;;;;;;;;;5020143;28;20017;-86
2022/12/22 16:25:18;;;;;;;10.75;2.53;;;;;;;;;;5018747;28;20053;-86
2022/12/22 16:27:46;;;;;;;8.10;2.35;;;;;;;;;;5018522;28;20022;-85
2022/12/22 16:30:20;;;;;;;9.32;2.05;;;;;;;;;;5009763;28;20029;-86
2022/12/22 16:32:46;;;;;;;5.78;1.90;;;;;;;;;;5028086;28;20034;-85
2022/12/22 16:35:14;;;;;;;11.75;3.08;;;;;;;;;;5007963;28;20052;-83
2022/12/22 16:37:40;;;;;;;7.82;2.55;;;;;;;;;;5025565;28;20026;-86
2022/12/22 16:40:07;;;;;;;12.98;2.50;;;;;;;;;;5026712;28;20022;-85
2022/12/22 16:42:33;;;;;;;6.47;1.98;;;;;;;;;;5028371;28;20233;-84
2022/12/22 16:45:01;;;;;;;12.32;4.30;;;;;;;;;;5035478;28;20041;-86
2022/12/22 16:47:30;;;;;;;13.27;2.67;;;;;;;;;;5019490;28;20014;-86
2022/12/22 16:49:57;;;;;;;12.02;2.47;;;;;;;;;;5033687;28;20032;-86
2022/12/22 16:52:36;;;;;;;9.88;2.85;;;;;;;;;;5029117;28;20078;-86
2022/12/22 16:55:02;;;;;;;7.70;1.77;;;;;;;;;;5022793;28;20042;-85
2022/12/22 16:57:28;;;;;;;7.30;2.85;;;;;;;;;;5023749;28;20029;-84
2022/12/22 16:59:54;;;;;;;7.65;2.83;;;;;;;;;;5013053;28;20053;-86
2022/12/22 17:02:25;;;;;;;8.57;3.35;;;;;;;;;;5018449;28;20101;-86
2022/12/22 17:04:53;;;;;;;8.43;2.33;;;;;;;;;;5035403;28;20034;-85
2022/12/22 17:07:19;;;;;;;5.22;2.08;;;;;;;;;;5034997;28;20103;-85
2022/12/22 17:09:51;;;;;;;13.02;3.67;;;;;;;;;;5024353;28;20476;-84
2022/12/22 17:12:22;;;;;;;10.50;2.63;;;;;;;;;;5022379;28;20025;-84
2022/12/22 17:14:49;;;;;;;14.20;3.15;;;;;;;;;;5003638;28;20397;-84
2022/12/22 17:17:16;;;;;;;9.38;3.85;;;;;;;;;;5022456;28;20090;-83
2022/12/22 17:19:42;;;;;;;9.55;4.43;;;;;;;;;;5003701;28;20037;-84
2022/12/22 17:22:17;;;;;;;11.77;3.22;;;;;;;;;;5004375;28;20030;-85
2022/12/22 17:24:43;;;;;;;6.20;2.65;;;;;;;;;;5004082;28;20038;-85
2022/12/22 17:27:10;;;;;;;9.23;2.70;;;;;;;;;;5022356;28;20476;-84
2022/12/22 17:29:37;;;;;;;7.15;2.10;;;;;;;;;;5022340;28;20046;-85
2022/12/22 17:32:03;;;;;;;8.75;1.98;;;;;;;;;;5004489;28;20488;-85
2022/12/22 17:34:31;;;;;;;9.65;2.47;;;;;;;;;;5006452;28;20026;-84
2022/12/22 17:36:58;;;;;;;9.68;2.42;;;;;;;;;;5022307;28;20022;-85
2022/12/22 17:39:24;;;;;;;9.35;2.30;;;;;;;;;;5022483;28;20006;-84
2022/12/22 17:41:51;;;;;;;17.27;5.38;;;;;;;;;;5021923;28;20091;-84
2022/12/22 17:44:22;;;;;;;11.65;3.65;;;;;;;;;;5007722;28;20333;-84
2022/12/22 17:46:48;;;;;;;10.40;2.60;;;;;;;;;;5022370;28;20022;-85
2022/12/22 17:49:18;;;;;;;8.30;2.47;;;;;;;;;;5021555;28;20034;-83
2022/12/22 17:51:45;;;;;;;10.95;5.07;;;;;;;;;;5004438;28;20025;-85
2022/12/22 17:54:18;;;;;;;7.57;2.20;;;;;;;;;;5008154;28;20022;-84
2022/12/22 17:56:44;;;;;;;12.57;3.40;;;;;;;;;;5016491;28;20032;-83
2022/12/22 17:59:11;;;;;;;7.40;2.92;;;;;;;;;;5019292;28;20010;-85
2022/12/22 18:01:38;;;;;;;8.98;2.90;;;;;;;;;;5010333;28;20080;-82
2022/12/22 18:04:08;;;;;;;11.68;4.57;;;;;;;;;;5021393;28;20029;-82
2022/12/22 18:06:36;;;;;;;8.98;2.78;;;;;;;;;;5022363;28;20480;-82
2022/12/22 18:09:03;;;;;;;8.15;2.38;;;;;;;;;;5004798;28;20034;-82
2022/12/22 18:11:29;;;;;;;10.73;2.33;;;;;;;;;;4988281;28;20101;-82
2022/12/22 18:14:01;;;;;;;5.60;2.42;;;;;;;;;;5004033;28;20030;-83
2022/12/22 18:16:28;;;;;;;5.65;1.95;;;;;;;;;;4991967;28;20033;-83
2022/12/22 18:18:54;;;;;;;7.38;3.20;;;;;;;;;;5034915;28;20037;-83
2022/12/22 18:21:23;;;;;;;5.85;2.53;;;;;;;;;;5017722;28;20113;-81
2022/12/22 18:23:49;;;;;;;6.78;2.55;;;;;;;;;;5017492;28;20071;-83
2022/12/22 18:26:26;;;;;;;4.20;2.38;;;;;;;;;;5018295;28;20057;-83
2022/12/22 18:28:54;;;;;;;9.75;2.88;;;;;;;;;;5036209;28;20065;-84
2022/12/22 18:31:23;;;;;;;9.15;2.63;;;;;;;;;;5002566;28;20032;-85
2022/12/22 18:33:49;;;;;;;13.55;2.80;;;;;;;;;;5018931;28;20095;-84
2022/12/22 18:36:29;;;;;;;7.03;2.05;;;;;;;;;;5035920;28;20010;-84
2022/12/22 18:39:05;;;;;;;8.32;2.63;;;;;;;;;;5035869;28;20014;-83
2022/12/22 18:41:39;;;;;;;8.75;2.08;;;;;;;;;;5019209;28;20014;-82
2022/12/22 18:44:10;;;;;;;7.18;2.70;;;;;;;;;;5017149;28;20025;-83